Nashua, NH

4:19 AM EST on January 22, 2017 (GMT -0500)
ME1714 | | Change Station
Active Advisory: Gale Warning

Elev 200 ft 42.78 °N, 71.46 °W | Updated 2 minutes ago

Clear
Clear
34.0 °F
Feels Like 34 °F
N
0.0
Wind Variable Wind from South

Today
High -- | Low -- °F
--% Chance of Precip.
Yesterday
High -- | Low -- °F
Precip. -- in
Pressure 29.78 in
Visibility 10.0 miles
Clouds Clear
Windchill 34 °F
Dew Point 32 °F
Humidity 94%
Rainfall in
Snow Depth Not available.
7:09 AM 4:46 PM
Waning Crescent, 28% visible
METAR KASH 220756Z AUTO 28003KT 10SM CLR 02/01 A2975 RMK AO2 SLP085 T00170011
Pressure 29.78 in
Visibility 10.0 miles
Clouds Clear
Windchill 34 °F
Dew Point 32 °F
Humidity 94%
Rainfall in
Snow Depth Not available.
7:09 AM 4:46 PM
Waning Crescent, 28% visible
METAR KASH 220756Z AUTO 28003KT 10SM CLR 02/01 A2975 RMK AO2 SLP085 T00170011

Get Your Daily Forecast Email!

Thanks for signing up!

Be on the lookout for a verification email in your inbox.

You'll start receiving the daily forecast at 8 AM.

×

10-Day Weather Forecast

Almanac

Astronomy

Jan. 22, 2017 Rise Set
Actual Time
Civil Twilight
Nautical Twilight
Astronomical Twilight
Moon
Length of Visible Light
Length of Day
Tomorrow will be .
, % of the Moon is Illuminated

Today's Extremes

State Highs State Lows

Community

WunderPhotos

Upload Photos

1,962,540 photos uploaded!

WunderBlog® & News

Nearby

Air Quality

  Air Quality AQ Index Pollutant
Not available.

Snow Depth

Station Depth Elevation

Earthquake Activity

City Distance Mag. Time & Date
Minimum magnitude displayed is 2.5.

Coastal Water Temperatures

Place Temperature

Stations

Nearby Weather Stations

Station Location Temp. Windchill Dew Point Humidity Wind Precip. Elev Updated Type
                   

Watches & Warnings

Gale Warning
Issued: 3:08 AM EST Jan. 22, 2017 – National Weather Service

... Gale Warning now in effect from 7 am Monday to 7 am EST
Tuesday...

* winds and seas... northeast winds 15 to 25 kt with gusts up to 45
kt. Waves around 2 feet.

Precautionary/preparedness actions...

A Gale Warning means winds of 34 to 47 knots are imminent or
occurring. Operating a vessel in gale conditions requires
experience and properly equipped vessels. It is highly
recommended that mariners without the proper experience seek safe
Harbor prior to the onset of gale conditions.